createdAt,value
2018-05-04T00:09:16.796Z,12.6
2018-05-04T00:19:16.073Z,12.7
2018-05-04T00:29:15.247Z,12.4
2018-05-04T00:39:14.515Z,13.1
2018-05-04T00:49:13.750Z,12.8
2018-05-04T00:59:13.480Z,12.7
2018-05-04T01:09:12.457Z,12.8
2018-05-04T01:19:11.361Z,12.7
2018-05-04T01:29:10.661Z,12.7
2018-05-04T01:39:09.757Z,12.5
2018-05-04T01:49:09.039Z,12.9
2018-05-04T01:59:08.226Z,13.1
2018-05-04T02:09:07.415Z,12.6
2018-05-04T02:19:06.778Z,12.7
2018-05-04T02:29:05.868Z,13.1
2018-05-04T02:39:05.087Z,12.7
2018-05-04T02:49:05.167Z,13.1
2018-05-04T02:59:03.520Z,12.7
2018-05-04T03:09:03.072Z,13.2
2018-05-04T03:19:02.412Z,12.6
2018-05-04T03:29:01.213Z,13
2018-05-04T03:39:00.451Z,13
2018-05-04T03:48:59.627Z,13.2
2018-05-04T03:58:58.915Z,12.7
2018-05-04T04:08:58.051Z,12.6
2018-05-04T04:18:57.297Z,12.6
2018-05-04T04:28:56.575Z,13.2
2018-05-04T04:38:56.285Z,13.8
2018-05-04T04:48:55.229Z,14.4
2018-05-04T04:58:54.242Z,14
2018-05-04T05:08:53.472Z,14.5
2018-05-04T05:18:52.611Z,14
2018-05-04T05:28:51.803Z,13.8
2018-05-04T05:38:51.476Z,14.3
2018-05-04T05:48:50.587Z,14.4
2018-05-04T05:58:49.820Z,14.3
2018-05-04T06:08:48.698Z,14.4
2018-05-04T06:18:47.985Z,14.3
2018-05-04T06:28:47.653Z,14.4
2018-05-04T06:38:46.337Z,14.3
2018-05-04T06:48:45.764Z,14.1
2018-05-04T06:58:45.948Z,14
2018-05-04T07:08:44.021Z,14.2
2018-05-04T07:18:43.281Z,14.4
2018-05-04T07:28:42.561Z,13.8
2018-05-04T07:38:41.782Z,14.4
2018-05-04T07:48:41.277Z,14.3
2018-05-04T07:58:40.196Z,14.1
2018-05-04T08:08:39.709Z,14.7
2018-05-04T08:18:38.998Z,14.4
2018-05-04T08:28:39.292Z,14
2018-05-04T08:38:37.025Z,14.7
2018-05-04T08:48:36.215Z,14.3
2018-05-04T08:58:35.519Z,14.3
2018-05-04T09:08:34.663Z,14.3
2018-05-04T09:18:33.972Z,13.9
2018-05-04T09:28:33.459Z,13.9
2018-05-04T09:38:32.531Z,14.1
2018-05-04T09:48:31.892Z,14.5
2018-05-04T09:58:30.790Z,14.7
2018-05-04T10:08:29.977Z,14.4
2018-05-04T10:18:29.320Z,14.5
2018-05-04T10:28:29.128Z,14
2018-05-04T10:38:27.823Z,14
2018-05-04T10:48:27.218Z,14.5
2018-05-04T10:58:26.153Z,14.2
2018-05-04T11:08:25.384Z,14.4
2018-05-04T11:18:24.635Z,13.9
2018-05-04T11:28:23.767Z,14
2018-05-04T11:38:22.963Z,14.4
2018-05-04T11:48:22.478Z,14.2
2018-05-04T11:58:21.482Z,13.8
2018-05-04T12:08:20.728Z,14.7
2018-05-04T12:18:19.902Z,14.4
2018-05-04T12:28:19.164Z,13.9
2018-05-04T12:38:18.377Z,14
2018-05-04T12:48:17.663Z,14.1
2018-05-04T12:58:16.851Z,14
2018-05-04T13:08:16.023Z,14.1
2018-05-04T13:18:15.257Z,14.6
2018-05-04T13:28:14.808Z,13.6
2018-05-04T13:38:13.716Z,13.2
2018-05-04T13:48:13.263Z,13.3
2018-05-04T13:58:12.149Z,12.9
2018-05-04T14:08:11.322Z,13.3
2018-05-04T14:18:10.554Z,12.7
2018-05-04T14:28:09.816Z,12.9
2018-05-04T14:38:09.322Z,12.6
2018-05-04T14:48:08.558Z,12.8
2018-05-04T14:58:07.531Z,13.3
2018-05-04T15:08:06.697Z,13.2
2018-05-04T15:18:05.905Z,13
2018-05-04T15:28:05.125Z,12.6
2018-05-04T15:38:04.390Z,12.7
2018-05-04T15:48:03.526Z,12.7
2018-05-04T15:58:02.786Z,12.6
2018-05-04T16:08:02.275Z,12.8
2018-05-04T16:18:01.323Z,13.1
2018-05-04T16:28:00.494Z,12.7
2018-05-04T16:37:59.689Z,13.1
2018-05-04T16:47:59.228Z,12.6
2018-05-04T16:57:58.146Z,12.7
2018-05-04T17:07:57.337Z,12.7
2018-05-04T17:17:56.637Z,13
2018-05-04T17:27:55.836Z,13.1
2018-05-04T17:37:55.381Z,12.9
2018-05-04T17:47:54.258Z,13.2
2018-05-04T17:57:53.744Z,12.6
2018-05-04T18:07:52.791Z,13.1
2018-05-04T18:17:52.299Z,12.9
2018-05-04T18:27:51.154Z,12.6
2018-05-04T18:37:50.465Z,12.8
2018-05-04T18:47:49.560Z,12.5
2018-05-04T18:57:48.786Z,12.7
2018-05-04T19:07:48.060Z,12.7
2018-05-04T19:17:47.277Z,12.8
2018-05-04T19:27:46.513Z,13.1
2018-05-04T19:37:46.042Z,13.2
2018-05-04T19:47:44.928Z,12.8
2018-05-04T19:57:44.428Z,12.8
2018-05-04T20:07:43.674Z,12.9
2018-05-04T20:17:42.678Z,12.9
2018-05-04T20:27:41.841Z,13.1
2018-05-04T20:37:41.124Z,13.1
2018-05-04T20:47:40.593Z,12.7
2018-05-04T20:57:39.500Z,12.6
2018-05-04T21:07:38.803Z,12.6
2018-05-04T21:17:38.407Z,13.1
2018-05-04T21:27:37.158Z,13.1
2018-05-04T21:37:36.694Z,13
2018-05-04T21:47:35.589Z,13.1
2018-05-04T21:57:34.941Z,12.8
2018-05-04T22:07:34.067Z,12.5
2018-05-04T22:17:33.263Z,12.8
2018-05-04T22:27:32.478Z,12.6
2018-05-04T22:37:31.698Z,12.8
2018-05-04T22:47:30.997Z,12.7
2018-05-04T22:57:30.129Z,12.7
2018-05-04T23:07:29.896Z,13.2
2018-05-04T23:17:28.705Z,13.1
2018-05-04T23:27:27.839Z,12.7
2018-05-04T23:37:27.293Z,12.9
2018-05-04T23:47:26.317Z,13.1
2018-05-04T23:57:25.490Z,12.7
